Terminal Aerodrome Forecast
Issued by NWS

Home | Current Version | Previous Version | Text Only | Print | Product List | Glossary On
Versions: 1 2 3 4 5 6 7 8 9 10 11 12 13 14 15 16 17 18 19
990
FTUS42 KKEY 200520
TAFMTH
TAF
KMTH 200520Z 2006/2106 11008KT P6SM SCT026 SCT050
     FM200900 09008KT P6SM VCSH SCT026 BKN050
     FM201500 11010KT P6SM VCTS SCT026CB BKN050
      TEMPO 2015/2019 12020G30KT 2SM +TSRA BKN026CB OVC050
     FM210000 08010G17KT P6SM SCT026 SCT050=

USA.gov is the U.S. government's official web portal to all federal, state and local government web resources and services.